Time;durP1;ratioP1;P1;durP2;ratioP2;P2;SDS_P1;SDS_P2;PMS_P1;PMS_P2;Temp;Humidity;BMP_temperature;BMP_pressure;BME280_temperature;BME280_humidity;BME280_pressure;Samples;Min_cycle;Max_cycle;Signal;HPM_P1;HPM_P2
2022/05/25 00:01:20;;;;;;;14.20;12.77;;;;;;;10.97;81.81;101135.00;4989384;28;20034;-63
2022/05/25 00:03:46;;;;;;;13.88;12.57;;;;;;;10.93;81.89;101138.78;4990004;28;20081;-64
2022/05/25 00:06:12;;;;;;;14.05;12.65;;;;;;;10.90;82.23;101134.66;4990389;28;20034;-63
2022/05/25 00:08:40;;;;;;;14.45;12.90;;;;;;;10.89;82.64;101135.56;4989509;28;20054;-64
2022/05/25 00:11:05;;;;;;;13.00;11.90;;;;;;;10.90;82.10;101134.66;4989411;28;20467;-68
2022/05/25 00:13:31;;;;;;;13.95;12.68;;;;;;;10.94;81.77;101146.44;4989173;28;20032;-63
2022/05/25 00:15:56;;;;;;;13.75;12.45;;;;;;;10.95;82.16;101142.88;4990643;28;20014;-63
2022/05/25 00:18:22;;;;;;;13.95;12.55;;;;;;;10.99;81.73;101154.69;4988207;28;20414;-67
2022/05/25 00:20:48;;;;;;;13.48;12.18;;;;;;;10.95;81.59;101150.66;4990185;28;20022;-65
2022/05/25 00:23:14;;;;;;;14.00;12.65;;;;;;;10.98;81.55;101155.63;4988528;28;20034;-65
2022/05/25 00:25:40;;;;;;;14.02;12.65;;;;;;;10.94;81.75;101149.03;4981679;28;20081;-64
2022/05/25 00:28:12;;;;;;;14.77;12.18;;;;;;;10.89;81.64;101154.56;4979026;28;20053;-65
2022/05/25 00:30:39;;;;;;;13.75;12.35;;;;;;;10.96;81.08;101160.13;4982280;28;20046;-64
2022/05/25 00:33:05;;;;;;;14.15;12.70;;;;;;;10.98;81.14;101157.41;4985675;28;20505;-64
2022/05/25 00:35:32;;;;;;;14.43;13.00;;;;;;;10.81;81.84;101156.13;4987154;28;20042;-69
2022/05/25 00:37:58;;;;;;;14.55;13.15;;;;;;;10.83;80.89;101165.41;4971107;28;20033;-68
2022/05/25 00:40:45;;;;;;;14.40;13.13;;;;;;;10.85;81.65;101162.72;4980423;28;20035;-65
2022/05/25 00:43:12;;;;;;;14.70;13.30;;;;;;;10.81;81.69;101172.50;4985342;28;20027;-66
2022/05/25 00:45:43;;;;;;;14.50;13.20;;;;;;;10.79;81.29;101176.19;4989798;28;20030;-63
2022/05/25 00:48:13;;;;;;;14.77;13.30;;;;;;;10.75;81.55;101178.16;4981945;28;20038;-66
2022/05/25 00:53:29;;;;;;;14.95;13.55;;;;;;;10.73;81.87;101174.88;4960968;28;20054;-64
2022/05/25 00:55:55;;;;;;;14.57;12.88;;;;;;;10.73;82.29;101189.63;4978420;28;20282;-67
2022/05/25 00:58:20;;;;;;;14.45;13.07;;;;;;;10.64;82.14;101176.38;4977804;28;20041;-63
2022/05/25 01:00:45;;;;;;;14.07;12.77;;;;;;;10.61;81.64;101179.22;4979825;28;20467;-64
2022/05/25 01:03:12;;;;;;;14.73;13.27;;;;;;;10.56;81.95;101173.56;4981961;28;20073;-64
2022/05/25 01:05:39;;;;;;;13.73;12.32;;;;;;;10.63;81.89;101190.31;4988823;28;20528;-63
2022/05/25 01:08:35;;;;;;;13.52;12.23;;;;;;;10.62;82.09;101193.03;4983298;28;20085;-65
2022/05/25 01:11:22;;;;;;;13.95;11.93;;;;;;;10.58;82.30;101197.59;4977785;28;20072;-64
2022/05/25 01:14:02;;;;;;;13.15;11.93;;;;;;;10.52;82.20;101190.28;4966584;28;20414;-64
2022/05/25 01:16:40;;;;;;;13.35;12.02;;;;;;;10.53;82.52;101189.34;4987499;28;20026;-66
2022/05/25 01:19:37;;;;;;;13.25;12.10;;;;;;;10.55;82.48;101182.28;4968888;28;20038;-65
2022/05/25 01:22:57;;;;;;;13.50;12.10;;;;;;;10.58;82.74;101182.03;4973341;28;20734;-63
2022/05/25 01:26:23;;;;;;;13.02;11.70;;;;;;;10.57;82.35;101190.78;5145341;27;20388;-65
2022/05/25 01:29:05;;;;;;;13.10;11.65;;;;;;;10.49;82.34;101193.09;5145463;27;20043;-65
2022/05/25 01:31:39;;;;;;;13.23;11.27;;;;;;;10.44;82.46;101189.22;5145776;27;20083;-66
2022/05/25 01:34:25;;;;;;;12.65;11.38;;;;;;;10.47;82.11;101195.00;5127666;27;20015;-65
2022/05/25 01:37:04;;;;;;;12.88;11.63;;;;;;;10.35;82.39;101194.16;5145671;27;20087;-65
2022/05/25 01:39:33;;;;;;;13.27;11.73;;;;;;;10.33;82.94;101192.63;5145822;27;20466;-65
2022/05/25 01:42:05;;;;;;;13.20;11.88;;;;;;;10.30;83.75;101192.84;5145884;27;20147;-66
2022/05/25 01:44:38;;;;;;;13.88;12.35;;;;;;;10.23;83.11;101196.81;5145286;27;20022;-65
2022/05/25 01:47:09;;;;;;;14.07;12.77;;;;;;;10.18;83.26;101193.72;5145672;27;20060;-65
2022/05/25 01:50:21;;;;;;;14.73;13.25;;;;;;;10.26;83.67;101191.41;5126950;27;20026;-65
2022/05/25 01:52:53;;;;;;;13.90;12.50;;;;;;;10.20;83.73;101194.44;5140669;27;20083;-65
2022/05/25 01:55:25;;;;;;;14.80;13.32;;;;;;;10.11;84.17;101199.38;5145784;27;20015;-64
2022/05/25 01:57:56;;;;;;;14.93;13.43;;;;;;;10.03;83.53;101201.66;5145875;27;20087;-65
2022/05/25 02:00:57;;;;;;;13.52;12.15;;;;;;;10.17;84.04;101198.09;5126974;27;20164;-64
2022/05/25 02:06:20;;;;;;;14.25;12.75;;;;;;;10.07;83.50;101200.53;5144602;27;20406;-66
2022/05/25 02:09:00;;;;;;;14.38;12.82;;;;;;;10.16;83.66;101212.00;5145400;27;20382;-66
2022/05/25 02:11:42;;;;;;;15.13;13.75;;;;;;;10.10;84.05;101217.63;5145508;27;20036;-65
2022/05/25 02:14:24;;;;;;;15.20;13.60;;;;;;;10.03;84.12;101209.44;5145547;27;20015;-67
2022/05/25 02:17:04;;;;;;;14.82;13.35;;;;;;;9.99;83.65;101210.63;5126560;27;20376;-64
2022/05/25 02:19:29;;;;;;;13.40;12.00;;;;;;;10.15;83.04;101209.50;5145046;27;20069;-65
2022/05/25 02:21:57;;;;;;;13.48;12.18;;;;;;;9.97;83.90;101206.47;5144595;27;20074;-64
2022/05/25 02:24:31;;;;;;;14.00;12.60;;;;;;;10.09;83.53;101211.63;5125897;27;20039;-65
2022/05/25 02:27:15;;;;;;;13.98;12.25;;;;;;;10.13;83.42;101216.56;5124445;28;20047;-70
2022/05/25 02:29:46;;;;;;;14.20;12.50;;;;;;;10.14;82.77;101213.03;5124614;28;20031;-65
2022/05/25 02:32:18;;;;;;;14.35;12.95;;;;;;;10.10;83.35;101218.44;5124511;28;20038;-65
2022/05/25 02:34:48;;;;;;;14.43;12.98;;;;;;;10.13;82.81;101221.75;5132235;27;20019;-68
2022/05/25 02:37:15;;;;;;;14.70;13.10;;;;;;;9.92;83.29;101217.19;5130981;27;20030;-69
2022/05/25 02:39:42;;;;;;;14.20;12.65;;;;;;;9.99;83.34;101223.59;5129677;27;20027;-66
2022/05/25 02:42:15;;;;;;;14.05;12.50;;;;;;;9.97;83.46;101217.66;5131302;27;20027;-64
2022/05/25 02:44:42;;;;;;;14.10;12.77;;;;;;;9.87;83.66;101216.72;5131488;27;20034;-64
2022/05/25 02:47:09;;;;;;;14.57;13.15;;;;;;;9.91;83.80;101222.47;5130992;27;20574;-66
2022/05/25 02:49:35;;;;;;;14.57;13.07;;;;;;;9.78;84.28;101223.38;5130388;27;20027;-67
2022/05/25 02:52:00;;;;;;;14.05;12.73;;;;;;;9.87;84.02;101216.72;5130953;27;20031;-66
2022/05/25 02:54:26;;;;;;;15.43;13.82;;;;;;;9.77;84.35;101226.91;5130505;27;20019;-65
2022/05/25 02:56:51;;;;;;;14.95;13.45;;;;;;;9.79;83.84;101232.78;5112204;27;20368;-65
2022/05/25 02:59:16;;;;;;;14.73;13.23;;;;;;;9.87;83.93;101234.84;5130087;27;20575;-65
2022/05/25 03:01:42;;;;;;;14.73;13.18;;;;;;;9.86;83.11;101238.34;5111732;27;20023;-67
2022/05/25 03:04:07;;;;;;;14.48;13.07;;;;;;;9.79;83.82;101234.53;5129900;27;20027;-64
2022/05/25 03:06:33;;;;;;;15.30;13.57;;;;;;;9.75;84.17;101238.31;5130633;27;20035;-66
2022/05/25 03:08:59;;;;;;;14.70;13.20;;;;;;;9.73;83.78;101245.34;5131078;27;20030;-65
2022/05/25 03:11:24;;;;;;;14.27;12.90;;;;;;;9.77;83.17;101242.44;5130767;27;20459;-64
2022/05/25 03:13:50;;;;;;;14.10;12.68;;;;;;;9.81;83.17;101243.06;5130442;27;20371;-69
2022/05/25 03:16:18;;;;;;;16.50;13.40;;;;;;;9.81;83.49;101253.41;5129501;27;20459;-66
2022/05/25 03:18:44;;;;;;;;;;;;;;;9.96;83.14;101252.28;5130532;27;20031;-66
2022/05/25 03:21:09;;;;;;;14.25;12.82;;;;;;;9.79;82.91;101243.16;5130508;27;19917;-65
2022/05/25 03:23:35;;;;;;;15.15;13.65;;;;;;;9.61;84.07;101251.41;5130010;27;20410;-65
2022/05/25 03:26:01;;;;;;;15.45;13.85;;;;;;;9.61;84.19;101254.00;5130371;27;20027;-65
2022/05/25 03:28:26;;;;;;;16.27;14.55;;;;;;;9.64;84.17;101252.03;5129868;27;20072;-65
2022/05/25 03:30:52;;;;;;;15.57;13.98;;;;;;;9.68;83.97;101255.22;5129968;27;20027;-65
2022/05/25 03:33:17;;;;;;;16.40;14.70;;;;;;;9.54;84.51;101251.84;5130323;27;20062;-65
2022/05/25 03:35:43;;;;;;;17.35;15.38;;;;;;;9.54;84.23;101257.03;5111480;27;20023;-65
2022/05/25 03:38:09;;;;;;;16.70;15.10;;;;;;;9.66;84.19;101270.03;5109732;28;20074;-67
2022/05/25 03:40:35;;;;;;;16.38;14.77;;;;;;;9.70;84.77;101266.31;5122875;27;20061;-64
2022/05/25 03:43:00;;;;;;;16.73;15.23;;;;;;;9.64;84.52;101258.97;5130196;27;20020;-66
2022/05/25 03:45:26;;;;;;;17.48;15.68;;;;;;;9.69;84.47;101265.47;5126755;27;20092;-65
2022/05/25 03:47:52;;;;;;;17.55;16.05;;;;;;;9.68;84.29;101265.56;5097906;27;20122;-64
2022/05/25 03:50:18;;;;;;;17.25;15.65;;;;;;;9.60;84.96;101260.13;5118992;27;20055;-64
2022/05/25 03:52:44;;;;;;;17.65;15.88;;;;;;;9.44;84.81;101266.34;5116960;27;20046;-65
2022/05/25 03:55:10;;;;;;;18.45;16.65;;;;;;;9.43;85.21;101269.88;5115130;27;20066;-65
2022/05/25 03:57:35;;;;;;;18.08;16.27;;;;;;;9.59;85.02;101269.66;5114528;27;20055;-67
2022/05/25 04:00:01;;;;;;;18.02;16.25;;;;;;;9.51;85.15;101269.34;5124115;27;20414;-67
2022/05/25 04:02:26;;;;;;;17.58;15.82;;;;;;;9.53;84.90;101265.72;5119746;27;20041;-64
2022/05/25 04:05:07;;;;;;;17.65;15.95;;;;;;;9.56;85.21;101286.22;5119298;27;20110;-67
2022/05/25 04:07:40;;;;;;;17.15;15.45;;;;;;;9.57;84.88;101272.31;5113503;27;20020;-65
2022/05/25 04:10:06;;;;;;;17.10;15.50;;;;;;;9.60;84.82;101275.66;5116071;27;20027;-69
2022/05/25 04:12:32;;;;;;;17.08;15.48;;;;;;;9.58;84.91;101271.41;5109785;27;20109;-66
2022/05/25 04:14:58;;;;;;;17.02;15.32;;;;;;;9.51;85.38;101277.94;5111738;27;20035;-64
2022/05/25 04:17:23;;;;;;;17.20;15.68;;;;;;;9.61;85.46;101279.88;5116913;27;20023;-66
2022/05/25 04:19:50;;;;;;;17.08;15.38;;;;;;;9.62;85.15;101268.59;5124624;27;20471;-65
2022/05/25 04:22:15;;;;;;;16.63;15.02;;;;;;;9.61;85.02;101277.31;5114444;27;20027;-65
2022/05/25 04:24:41;;;;;;;16.77;15.05;;;;;;;9.66;84.92;101283.81;5118868;27;20040;-65
2022/05/25 04:27:06;;;;;;;17.05;15.25;;;;;;;9.66;85.04;101277.81;5110446;27;20467;-65
2022/05/25 04:29:31;;;;;;;15.85;14.25;;;;;;;9.60;85.42;101283.41;5094919;27;20149;-64
2022/05/25 04:31:57;;;;;;;15.40;13.82;;;;;;;9.62;85.21;101266.00;5113971;27;20015;-65
2022/05/25 04:34:22;;;;;;;16.25;14.68;;;;;;;9.66;85.09;101285.56;5113943;27;20470;-65
2022/05/25 04:36:47;;;;;;;15.30;13.80;;;;;;;9.54;86.06;101282.91;5111241;27;20058;-65
2022/05/25 04:39:13;;;;;;;15.23;13.75;;;;;;;9.45;85.99;101282.72;5116554;27;20030;-65
2022/05/25 04:41:38;;;;;;;14.07;12.68;;;;;;;9.64;85.37;101282.28;5129037;27;20030;-65
2022/05/25 04:44:04;;;;;;;15.88;14.07;;;;;;;9.50;85.94;101291.81;5129144;27;20510;-64
2022/05/25 04:46:30;;;;;;;14.77;13.27;;;;;;;9.49;86.13;101274.63;5109980;27;20114;-64
2022/05/25 04:48:55;;;;;;;14.20;12.70;;;;;;;9.67;85.42;101287.22;5109407;27;20485;-64
2022/05/25 04:51:21;;;;;;;14.13;12.63;;;;;;;9.68;85.79;101294.06;5127950;27;20038;-64
2022/05/25 04:53:46;;;;;;;13.65;12.25;;;;;;;9.72;85.35;101291.16;5110036;27;20483;-64
2022/05/25 04:58:55;;;;;;;14.25;11.93;;;;;;;9.78;85.72;101301.06;5114939;27;20367;-64
2022/05/25 05:01:22;;;;;;;13.23;11.80;;;;;;;9.85;85.01;101301.47;5123475;27;20031;-64
2022/05/25 05:03:48;;;;;;;13.40;11.50;;;;;;;9.86;85.44;101297.94;5127136;27;20468;-64
2022/05/25 05:06:14;;;;;;;15.05;11.82;;;;;;;9.79;86.01;101307.91;5108932;27;20031;-65
2022/05/25 05:08:39;;;;;;;13.10;11.70;;;;;;;9.80;85.81;101303.56;5128734;27;20056;-64
2022/05/25 05:11:10;;;;;;;13.20;11.75;;;;;;;9.83;86.41;101308.53;5128061;27;20049;-64
2022/05/25 05:13:37;;;;;;;13.00;11.60;;;;;;;9.85;86.05;101311.81;5121510;27;20126;-64
2022/05/25 05:16:06;;;;;;;12.57;11.27;;;;;;;9.92;85.79;101309.63;5109363;28;20027;-64
2022/05/25 05:18:32;;;;;;;14.50;11.60;;;;;;;9.98;86.09;101304.88;5109403;27;20027;-66
2022/05/25 05:20:57;;;;;;;13.30;11.40;;;;;;;10.00;85.91;101304.75;5131972;27;20476;-64
2022/05/25 05:23:23;;;;;;;13.27;11.30;;;;;;;10.05;85.98;101300.88;5107909;27;20070;-64
2022/05/25 05:25:48;;;;;;;12.90;11.45;;;;;;;10.15;85.08;101307.97;5108095;28;20035;-64
2022/05/25 05:28:17;;;;;;;13.70;12.27;;;;;;;10.19;85.27;101304.25;5107574;28;20580;-64
2022/05/25 05:30:48;;;;;;;15.73;11.27;;;;;;;10.17;85.97;101306.13;5126816;28;20063;-65
2022/05/25 05:33:13;;;;;;;13.55;11.77;;;;;;;10.18;85.83;101289.63;5127472;28;20024;-66
2022/05/25 05:35:39;;;;;;;13.50;11.85;;;;;;;10.28;85.92;101298.44;5127795;28;20042;-63
2022/05/25 05:38:05;;;;;;;14.95;11.43;;;;;;;10.34;86.44;101297.97;5127489;28;20031;-65
2022/05/25 05:40:31;;;;;;;15.40;11.35;;;;;;;10.40;85.79;101292.34;5128614;28;20058;-64
2022/05/25 05:42:59;;;;;;;15.45;11.65;;;;;;;10.44;85.10;101292.97;5116550;28;20066;-65
2022/05/25 05:45:29;;;;;;;12.82;11.40;;;;;;;10.51;85.37;101288.97;5122964;28;20022;-67
2022/05/25 05:48:09;;;;;;;13.38;11.93;;;;;;;10.51;85.52;101289.78;5128053;28;20058;-64
2022/05/25 05:50:38;;;;;;;14.65;11.52;;;;;;;10.62;85.10;101289.00;5128018;28;20497;-64
2022/05/25 05:53:05;;;;;;;14.38;11.98;;;;;;;10.70;84.31;101286.66;5119533;28;20521;-64
2022/05/25 05:55:31;;;;;;;13.13;11.30;;;;;;;10.79;84.62;101290.34;5115581;28;20023;-66
2022/05/25 05:57:59;;;;;;;13.30;11.80;;;;;;;10.82;84.67;101293.50;5112637;28;20041;-64
2022/05/25 06:00:24;;;;;;;14.23;11.68;;;;;;;10.89;84.64;101293.88;5113209;28;20072;-64
2022/05/25 06:02:50;;;;;;;13.63;11.40;;;;;;;10.92;84.36;101283.28;5106033;28;20034;-66
2022/05/25 06:05:16;;;;;;;13.65;12.23;;;;;;;10.98;84.84;101302.75;5127677;28;20072;-64
2022/05/25 06:07:41;;;;;;;16.00;11.52;;;;;;;10.97;84.75;101294.13;5123145;28;20080;-68
2022/05/25 06:10:07;;;;;;;13.93;11.23;;;;;;;10.96;84.88;101302.88;5127748;27;20038;-64
2022/05/25 06:12:33;;;;;;;14.10;11.73;;;;;;;11.04;84.32;101303.09;5117246;27;20038;-66
2022/05/25 06:19:25;;;;;;;15.13;11.30;;;;;;;11.15;84.40;101310.91;5111521;27;20447;-64
2022/05/25 06:20:28;;;;;;;14.15;11.20;;;;;;;11.35;84.51;101311.97;5130374;27;20045;-64
2022/05/25 06:22:54;;;;;;;15.88;11.85;;;;;;;11.42;84.37;101313.16;5123422;27;20383;-64
2022/05/25 06:25:19;;;;;;;15.02;11.05;;;;;;;11.48;84.11;101316.22;5121610;27;20044;-64
2022/05/25 06:27:44;;;;;;;13.82;11.45;;;;;;;11.53;84.01;101320.13;5096417;28;20063;-64
2022/05/25 06:30:11;;;;;;;14.05;11.07;;;;;;;11.59;83.28;101319.66;5126102;27;20471;-64
2022/05/25 06:32:36;;;;;;;15.25;11.15;;;;;;;11.58;82.94;101317.16;5110430;28;20095;-68
2022/05/25 06:35:02;;;;;;;14.73;10.70;;;;;;;11.64;83.34;101311.47;5121591;27;20753;-64
2022/05/25 06:37:28;;;;;;;14.88;11.27;;;;;;;11.68;83.57;101308.53;5131249;27;20057;-64
2022/05/25 06:39:53;;;;;;;15.27;11.75;;;;;;;11.81;83.80;101317.94;5118629;27;20027;-66
2022/05/25 06:42:18;;;;;;;15.38;11.73;;;;;;;11.85;83.51;101324.59;5130637;27;20027;-64
2022/05/25 06:44:44;;;;;;;15.32;11.65;;;;;;;11.91;83.27;101326.69;5131152;27;20368;-67
2022/05/25 06:47:15;;;;;;;14.77;11.70;;;;;;;11.95;82.64;101336.75;5131462;27;20498;-64
2022/05/25 06:49:40;;;;;;;14.75;12.38;;;;;;;11.94;82.44;101334.28;5131268;27;20083;-64
2022/05/25 06:52:08;;;;;;;15.27;12.20;;;;;;;11.89;82.32;101336.41;5117586;27;20456;-64
2022/05/25 06:54:34;;;;;;;14.80;12.20;;;;;;;11.99;82.37;101352.94;5111603;27;20027;-65
2022/05/25 06:56:59;;;;;;;15.73;13.73;;;;;;;12.05;82.15;101344.66;5118672;27;20372;-64
2022/05/25 06:59:24;;;;;;;15.15;13.55;;;;;;;12.17;82.20;101340.25;5118139;27;20026;-64
2022/05/25 07:01:50;;;;;;;18.70;15.38;;;;;;;12.23;82.27;101345.78;5112695;27;20073;-64
2022/05/25 07:04:15;;;;;;;17.98;15.50;;;;;;;12.38;82.42;101348.06;5110331;28;20478;-64
2022/05/25 07:06:40;;;;;;;18.08;16.27;;;;;;;12.36;81.33;101349.97;5129903;27;20463;-64
2022/05/25 07:09:08;;;;;;;17.58;15.68;;;;;;;12.46;80.92;101356.09;5130385;27;20469;-66
2022/05/25 07:11:33;;;;;;;19.58;17.42;;;;;;;12.55;81.08;101352.75;5127344;27;20731;-64
2022/05/25 07:13:59;;;;;;;21.40;19.25;;;;;;;12.58;81.01;101352.50;5110721;28;20043;-64
2022/05/25 07:16:25;;;;;;;22.30;20.00;;;;;;;12.69;80.72;101352.44;5110781;27;20471;-63
2022/05/25 07:18:51;;;;;;;22.55;20.60;;;;;;;12.71;80.93;101365.31;5130561;27;20034;-65
2022/05/25 07:21:20;;;;;;;25.75;23.35;;;;;;;12.82;80.94;101367.88;5116196;27;20134;-65
2022/05/25 07:23:47;;;;;;;25.88;23.58;;;;;;;12.80;80.82;101363.75;5109714;28;20096;-64
2022/05/25 07:26:13;;;;;;;26.17;23.83;;;;;;;13.02;81.34;101368.84;5114795;27;20164;-63
2022/05/25 07:28:40;;;;;;;26.27;23.90;;;;;;;13.09;80.60;101364.78;5130080;27;20098;-64
2022/05/25 07:31:11;;;;;;;26.33;23.88;;;;;;;13.18;80.87;101374.41;5115912;27;20023;-67
2022/05/25 07:33:39;;;;;;;25.35;22.98;;;;;;;13.27;79.49;101384.09;5130380;27;20471;-67
2022/05/25 07:36:08;;;;;;;26.00;23.80;;;;;;;13.20;79.69;101384.72;5130529;27;20073;-65
2022/05/25 07:38:34;;;;;;;25.20;22.95;;;;;;;13.11;78.54;101383.69;5129983;27;20026;-63
2022/05/25 07:41:00;;;;;;;25.80;23.55;;;;;;;13.19;77.83;101386.50;5125382;27;20031;-64
2022/05/25 07:43:29;;;;;;;26.20;23.90;;;;;;;13.26;77.42;101376.41;5129262;27;20031;-64
2022/05/25 07:45:54;;;;;;;27.33;25.17;;;;;;;13.21;77.43;101383.78;5130293;27;20051;-65
2022/05/25 07:48:19;;;;;;;26.80;24.40;;;;;;;13.28;77.04;101383.13;5130245;27;20058;-64
2022/05/25 07:50:45;;;;;;;26.60;24.23;;;;;;;13.31;76.54;101378.63;5129792;27;20423;-64
2022/05/25 07:55:56;;;;;;;26.75;24.27;;;;;;;13.47;76.03;101389.38;5129997;27;20058;-63
2022/05/25 07:58:22;;;;;;;27.38;25.08;;;;;;;13.47;75.38;101377.19;5129799;27;20070;-63
2022/05/25 08:00:51;;;;;;;29.00;26.40;;;;;;;13.58;76.76;101386.69;5129612;27;20068;-65
2022/05/25 08:06:01;;;;;;;27.38;24.98;;;;;;;13.81;74.28;101382.94;5109327;28;20039;-63
2022/05/25 08:08:27;;;;;;;28.02;25.60;;;;;;;14.01;74.93;101385.63;5108778;28;20024;-64
2022/05/25 08:10:59;;;;;;;29.67;27.25;;;;;;;14.04;74.86;101398.38;5124211;27;20124;-65
2022/05/25 08:13:25;;;;;;;31.73;28.95;;;;;;;13.93;75.00;101381.06;5111033;27;20023;-63
2022/05/25 08:15:50;;;;;;;32.38;29.60;;;;;;;13.97;75.29;101397.28;5124308;27;20141;-65
2022/05/25 08:18:18;;;;;;;33.47;30.67;;;;;;;14.01;74.92;101409.09;5125482;27;20366;-64
2022/05/25 08:20:44;;;;;;;36.10;32.93;;;;;;;13.98;75.77;101398.91;5128175;27;20023;-63
2022/05/25 08:23:12;;;;;;;35.85;32.92;;;;;;;14.08;75.11;101405.00;5110117;27;20321;-64
2022/05/25 08:25:37;;;;;;;39.08;35.88;;;;;;;14.09;75.87;101396.19;5128584;27;20049;-65
2022/05/25 08:28:04;;;;;;;38.33;35.03;;;;;;;14.31;74.39;101395.97;5128907;27;20063;-63
2022/05/25 08:30:30;;;;;;;40.67;37.35;;;;;;;14.26;74.19;101398.16;5093529;27;20027;-63
2022/05/25 08:32:56;;;;;;;43.60;39.92;;;;;;;14.38;73.92;101401.47;5128693;27;20027;-63
2022/05/25 08:35:22;;;;;;;43.20;39.70;;;;;;;14.18;74.88;101400.63;5127989;27;20085;-64
2022/05/25 08:37:48;;;;;;;43.55;39.92;;;;;;;14.37;73.41;101399.00;5128983;27;20023;-64
2022/05/25 08:40:18;;;;;;;42.00;38.28;;;;;;;14.52;72.01;101400.28;5127491;27;20026;-68
2022/05/25 08:42:50;;;;;;;42.30;38.83;;;;;;;14.41;73.17;101385.56;5111519;27;20023;-64
2022/05/25 08:45:16;;;;;;;43.30;39.88;;;;;;;14.67;72.89;101391.06;5127516;27;20407;-64
2022/05/25 08:47:47;;;;;;;44.47;40.97;;;;;;;14.75;73.12;101399.06;5127608;27;20037;-64
2022/05/25 08:50:12;;;;;;;45.20;41.67;;;;;;;14.57;72.87;101390.28;5128683;27;20474;-64
2022/05/25 08:52:38;;;;;;;45.88;42.13;;;;;;;14.82;73.89;101394.91;5115503;27;20030;-66
2022/05/25 08:55:08;;;;;;;44.80;41.20;;;;;;;15.04;73.37;101398.19;5122706;27;20428;-64
2022/05/25 08:57:40;;;;;;;42.40;39.13;;;;;;;14.97;71.84;101402.34;5110620;27;20038;-65
2022/05/25 09:00:13;;;;;;;41.10;37.78;;;;;;;15.21;71.33;101405.31;5115488;27;20478;-67
2022/05/25 09:02:39;;;;;;;40.67;37.40;;;;;;;15.25;71.62;101401.44;5117945;27;20027;-67
2022/05/25 09:05:22;;;;;;;40.65;37.30;;;;;;;15.36;72.52;101403.88;5107113;28;20031;-63
2022/05/25 09:07:50;;;;;;;40.53;37.42;;;;;;;15.55;72.15;101394.34;5118708;27;20045;-63
2022/05/25 09:10:17;;;;;;;39.78;36.58;;;;;;;15.73;71.89;101395.25;5126763;27;20042;-64
2022/05/25 09:12:47;;;;;;;37.13;34.13;;;;;;;15.62;69.06;101398.03;5128072;27;20055;-64
2022/05/25 09:15:19;;;;;;;36.13;33.33;;;;;;;15.49;68.97;101402.78;5128838;27;20027;-67
2022/05/25 09:17:51;;;;;;;35.28;32.47;;;;;;;15.65;69.06;101403.84;5118633;27;20344;-63
2022/05/25 09:20:23;;;;;;;33.40;30.55;;;;;;;15.72;69.29;101398.84;5111167;27;20020;-63
2022/05/25 09:22:49;;;;;;;32.13;29.73;;;;;;;15.97;68.33;101401.75;5115478;27;20042;-66
2022/05/25 09:25:16;;;;;;;28.98;26.58;;;;;;;16.04;67.96;101408.03;5116427;27;20479;-63
2022/05/25 09:27:47;;;;;;;27.02;24.70;;;;;;;16.04;68.26;101408.84;5109211;28;20016;-64
2022/05/25 09:30:15;;;;;;;29.90;27.58;;;;;;;16.12;68.63;101416.00;5114942;28;20078;-63
2022/05/25 09:32:43;;;;;;;28.95;26.60;;;;;;;16.24;66.98;101412.19;5127609;27;20034;-63
2022/05/25 09:35:12;;;;;;;27.33;25.23;;;;;;;16.35;67.75;101422.47;5128435;27;20023;-66
2022/05/25 09:38:05;;;;;;;25.80;23.70;;;;;;;16.57;67.11;101417.72;5114289;27;20106;-64
2022/05/25 09:40:59;;;;;;;23.08;20.98;;;;;;;16.52;65.30;101412.16;5099187;28;20082;-64
2022/05/25 09:43:25;;;;;;;20.23;18.63;;;;;;;16.46;63.91;101419.63;5097835;28;20053;-65
2022/05/25 09:45:57;;;;;;;19.42;17.92;;;;;;;16.55;64.39;101411.84;5118519;27;20032;-65
2022/05/25 09:48:26;;;;;;;20.48;18.48;;;;;;;16.75;64.61;101413.38;5124505;27;20522;-64
2022/05/25 09:50:54;;;;;;;18.60;17.05;;;;;;;16.66;62.30;101415.06;5131603;27;20290;-64
2022/05/25 09:53:24;;;;;;;17.35;15.85;;;;;;;16.61;62.42;101419.09;5117587;27;20011;-64
2022/05/25 09:56:06;;;;;;;16.05;14.75;;;;;;;16.71;63.10;101422.50;5112454;27;20012;-64
2022/05/25 09:58:39;;;;;;;16.95;13.40;;;;;;;16.71;62.88;101417.25;5111921;28;20485;-64
2022/05/25 10:01:23;;;;;;;12.55;11.55;;;;;;;16.86;63.12;101415.75;5112725;27;20138;-64
2022/05/25 10:03:50;;;;;;;13.27;12.07;;;;;;;16.96;62.53;101411.22;5111165;27;20035;-65
2022/05/25 10:06:23;;;;;;;11.60;10.63;;;;;;;17.11;61.86;101405.44;5111377;28;20024;-63
2022/05/25 10:09:09;;;;;;;10.18;9.23;;;;;;;17.20;62.35;101401.88;5111738;28;20391;-64
2022/05/25 10:12:16;;;;;;;8.88;7.78;;;;;;;17.28;62.38;101398.50;5111194;28;20375;-64
2022/05/25 10:14:54;;;;;;;7.78;6.30;;;;;;;17.32;61.18;101394.56;5111238;28;20039;-66
2022/05/25 10:17:31;;;;;;;;;;;;;;;17.43;62.92;101389.91;5122696;27;20110;-64
2022/05/25 10:19:57;;;;;;;7.85;5.47;;;;;;;17.36;58.54;101401.16;5122045;27;19915;-65
2022/05/25 10:22:46;;;;;;;6.93;4.72;;;;;;;17.49;60.67;101397.16;5131263;27;20035;-65
2022/05/25 10:25:20;;;;;;;;;;;;;;;17.63;61.55;101402.78;5131962;27;20043;-64
2022/05/25 10:27:46;;;;;;;6.20;3.60;;;;;;;17.12;56.43;101407.09;5131041;27;19998;-64
2022/05/25 10:36:56;;;;;;;5.05;3.28;;;;;;;16.87;58.88;101409.53;5116113;27;20080;-64
2022/05/25 10:39:28;;;;;;;5.72;3.67;;;;;;;16.91;59.60;101403.00;5113872;27;20039;-66
2022/05/25 10:42:19;;;;;;;5.40;3.28;;;;;;;17.15;59.57;101398.94;5115995;27;20034;-64
2022/05/25 10:44:56;;;;;;;5.93;3.40;;;;;;;17.08;58.10;101403.13;5119477;27;20037;-64
2022/05/25 10:47:54;;;;;;;6.10;3.30;;;;;;;17.15;58.98;101398.94;5116477;27;20514;-64
2022/05/25 10:50:22;;;;;;;5.78;2.95;;;;;;;17.01;56.28;101404.72;5122134;27;20019;-64
2022/05/25 10:53:26;;;;;;;5.20;2.78;;;;;;;16.97;58.02;101406.81;5121197;27;20031;-65
2022/05/25 10:56:48;;;;;;;4.93;3.00;;;;;;;16.89;57.73;101407.56;5115407;27;20024;-65
2022/05/25 10:59:19;;;;;;;5.30;3.10;;;;;;;17.01;58.17;101402.09;5044187;28;20075;-66
2022/05/25 11:01:56;;;;;;;5.40;2.50;;;;;;;17.20;58.38;101404.50;5044424;28;20040;-63
2022/05/25 11:04:27;;;;;;;5.53;2.45;;;;;;;17.23;56.54;101406.84;5044737;28;20072;-65
2022/05/25 11:07:10;;;;;;;5.65;2.45;;;;;;;17.25;57.45;101404.88;5044190;28;20167;-64
2022/05/25 11:10:09;;;;;;;5.47;3.15;;;;;;;17.24;58.00;101419.78;5044836;28;20028;-66
2022/05/25 11:12:38;;;;;;;5.93;3.30;;;;;;;17.02;56.37;101403.72;5045110;28;20111;-64
2022/05/25 11:15:06;;;;;;;5.53;2.63;;;;;;;17.01;56.34;101407.34;5049325;28;20040;-66
2022/05/25 11:17:46;;;;;;;3.83;1.65;;;;;;;16.90;54.73;101401.34;5039111;28;20434;-65
2022/05/25 11:20:28;;;;;;;5.03;1.70;;;;;;;16.96;55.47;101400.75;5045275;28;20112;-64
2022/05/25 11:23:33;;;;;;;7.20;2.00;;;;;;;17.04;56.77;101399.19;5045980;28;20041;-64
2022/05/25 11:26:35;;;;;;;4.03;1.90;;;;;;;17.28;57.10;101399.34;4998096;28;20042;-65
2022/05/25 11:29:06;;;;;;;5.18;2.20;;;;;;;17.53;56.90;101398.47;4992480;28;20037;-64
2022/05/25 11:31:38;;;;;;;5.00;2.67;;;;;;;17.59;53.88;101396.19;5076158;28;20078;-64
2022/05/25 11:34:11;;;;;;;5.45;2.60;;;;;;;17.61;53.32;101394.28;5086209;28;20115;-64
2022/05/25 11:37:14;;;;;;;3.72;2.78;;;;;;;17.77;55.49;101394.34;5086166;28;20078;-66
2022/05/25 11:39:48;;;;;;;6.00;3.22;;;;;;;18.04;53.36;101391.50;4985351;28;20042;-65
2022/05/25 11:42:29;;;;;;;5.38;2.75;;;;;;;18.23;55.13;101400.06;4982572;28;20089;-65
2022/05/25 11:45:01;;;;;;;4.85;2.80;;;;;;;18.38;52.49;101397.63;4984534;28;20590;-66
2022/05/25 11:47:45;;;;;;;4.88;2.70;;;;;;;18.42;52.99;101384.03;4985396;28;20084;-66
2022/05/25 11:50:14;;;;;;;3.95;2.20;;;;;;;18.46;50.49;101387.94;4986034;28;20042;-65
2022/05/25 11:52:39;;;;;;;4.95;2.35;;;;;;;18.53;49.22;101386.31;4984523;28;20073;-65
2022/05/25 11:55:08;;;;;;;3.70;2.27;;;;;;;18.60;50.25;101385.66;4997453;28;20370;-65